TimeICT,TemperatureF,Dew PointF,Humidity,Sea Level PressureIn,VisibilityMPH,Wind Direction,Wind SpeedMPH,Gust SpeedMPH,PrecipitationIn,Events,Conditions,WindDirDegrees,DateUTC
12:00 AM,82.4,73.4,74,29.95,1.2,SSW,4.6,-,N/A,,Mostly Cloudy,200,2013-02-05 17:00:00
12:30 AM,82.4,73.4,74,29.95,1.2,South,6.9,-,N/A,,Mostly Cloudy,180,2013-02-05 17:30:00
1:00 AM,82.4,73.4,74,29.95,1.2,SSW,4.6,-,N/A,,Mostly Cloudy,200,2013-02-05 18:00:00
1:30 AM,82.4,73.4,74,29.95,1.2,South,6.9,-,N/A,,Mostly Cloudy,190,2013-02-05 18:30:00
2:00 AM,80.6,73.4,79,29.95,1.2,SW,3.5,-,N/A,,Mostly Cloudy,220,2013-02-05 19:00:00
2:30 AM,78.8,73.4,83,29.92,1.2,South,3.5,-,N/A,,Mostly Cloudy,190,2013-02-05 19:30:00
3:00 AM,78.8,73.4,83,29.92,1.2,Calm,Calm,-,N/A,,Mostly Cloudy,0,2013-02-05 20:00:00
3:30 AM,77.0,73.4,89,29.92,1.2,Calm,Calm,-,N/A,,Mostly Cloudy,0,2013-02-05 20:30:00
4:00 AM,77.0,73.4,89,29.92,1.2,Calm,Calm,-,N/A,,Mostly Cloudy,0,2013-02-05 21:00:00
4:30 AM,77.0,73.4,89,29.92,1.2,Calm,Calm,-,N/A,,Mostly Cloudy,0,2013-02-05 21:30:00
5:00 AM,77.0,73.4,89,29.92,1.2,Calm,Calm,-,N/A,,Mostly Cloudy,0,2013-02-05 22:00:00
5:30 AM,77.0,73.4,89,29.95,1.2,Calm,Calm,-,N/A,,Mostly Cloudy,0,2013-02-05 22:30:00
6:00 AM,77.0,73.4,89,29.95,1.2,Calm,Calm,-,N/A,,Mostly Cloudy,0,2013-02-05 23:00:00
6:30 AM,77.0,73.4,89,29.95,1.2,Calm,Calm,-,N/A,,Mostly Cloudy,0,2013-02-05 23:30:00
7:00 AM,75.2,71.6,89,29.95,1.2,NNW,3.5,-,N/A,,Mostly Cloudy,340,2013-02-06 00:00:00
7:30 AM,75.2,73.4,94,29.95,1.9,NNW,3.5,-,N/A,,Mostly Cloudy,330,2013-02-06 00:30:00
8:00 AM,77.0,73.4,89,29.95,2.5,North,3.5,-,N/A,,Mostly Cloudy,350,2013-02-06 01:00:00
8:30 AM,80.6,75.2,84,29.95,2.5,NW,3.5,-,N/A,,Mostly Cloudy,320,2013-02-06 01:30:00
9:00 AM,82.4,73.4,74,29.95,2.5,SSW,6.9,-,N/A,,Mostly Cloudy,210,2013-02-06 02:00:00
9:30 AM,84.2,73.4,70,29.95,3.1,South,4.6,-,N/A,,Mostly Cloudy,180,2013-02-06 02:30:00
10:00 AM,86.0,73.4,66,29.95,3.7,SSW,6.9,-,N/A,,Scattered Clouds,200,2013-02-06 03:00:00
10:30 AM,86.0,73.4,66,29.95,3.7,SSE,4.6,-,N/A,,Scattered Clouds,160,2013-02-06 03:30:00
11:00 AM,87.8,71.6,58,29.95,3.7,South,4.6,-,N/A,,Mostly Cloudy,190,2013-02-06 04:00:00
11:30 AM,86.0,75.2,70,29.92,3.7,SSW,4.6,-,N/A,,Mostly Cloudy,210,2013-02-06 04:30:00
12:00 PM,86.0,75.2,70,29.92,3.7,SSW,9.2,-,N/A,,Mostly Cloudy,200,2013-02-06 05:00:00
12:30 PM,87.8,73.4,62,29.89,3.7,South,9.2,-,N/A,,Mostly Cloudy,170,2013-02-06 05:30:00
1:00 PM,87.8,75.2,66,29.89,3.7,South,6.9,-,N/A,,Mostly Cloudy,180,2013-02-06 06:00:00
1:30 PM,86.0,73.4,66,29.86,3.7,South,9.2,-,N/A,,Mostly Cloudy,190,2013-02-06 06:30:00
2:00 PM,87.8,73.4,62,29.83,3.7,South,9.2,-,N/A,,Mostly Cloudy,190,2013-02-06 07:00:00
2:30 PM,87.8,73.4,62,29.83,3.7,South,9.2,-,N/A,,Mostly Cloudy,190,2013-02-06 07:30:00
3:00 PM,87.8,75.2,66,29.80,3.7,SW,9.2,-,N/A,,Mostly Cloudy,220,2013-02-06 08:00:00
3:30 PM,86.0,73.4,66,29.80,3.7,SSW,9.2,-,N/A,,Mostly Cloudy,210,2013-02-06 08:30:00
4:00 PM,86.0,75.2,70,29.80,4.3,SSW,6.9,-,N/A,,Mostly Cloudy,210,2013-02-06 09:00:00
4:30 PM,84.2,73.4,70,29.80,4.3,SSW,9.2,-,N/A,,Mostly Cloudy,210,2013-02-06 09:30:00
5:00 PM,84.2,75.2,74,29.80,4.3,SSW,9.2,-,N/A,,Mostly Cloudy,200,2013-02-06 10:00:00
5:30 PM,84.2,73.4,70,29.80,4.3,SSW,9.2,-,N/A,,Mostly Cloudy,210,2013-02-06 10:30:00
6:00 PM,82.4,73.4,74,29.80,4.3,SSW,9.2,-,N/A,,Mostly Cloudy,210,2013-02-06 11:00:00
6:30 PM,82.4,73.4,74,29.80,4.3,SSW,4.6,-,N/A,,Mostly Cloudy,210,2013-02-06 11:30:00
7:00 PM,80.6,73.4,79,29.83,4.3,SSW,4.6,-,N/A,,Mostly Cloudy,200,2013-02-06 12:00:00
7:30 PM,80.6,73.4,79,29.83,4.3,SSW,3.5,-,N/A,,Mostly Cloudy,210,2013-02-06 12:30:00
8:00 PM,80.6,73.4,79,29.83,4.3,SSW,4.6,-,N/A,,Mostly Cloudy,210,2013-02-06 13:00:00
8:30 PM,80.6,73.4,79,29.86,4.3,SSW,3.5,-,N/A,,Mostly Cloudy,210,2013-02-06 13:30:00
9:00 PM,80.6,73.4,79,29.86,4.3,SSW,4.6,-,N/A,,Mostly Cloudy,200,2013-02-06 14:00:00
9:30 PM,80.6,73.4,79,29.86,4.3,SSW,4.6,-,N/A,,Mostly Cloudy,210,2013-02-06 14:30:00
10:00 PM,80.6,73.4,79,29.86,4.3,SSW,4.6,-,N/A,,Mostly Cloudy,200,2013-02-06 15:00:00
11:00 PM,80.6,73.4,79,29.89,4.3,SSW,4.6,-,N/A,,Mostly Cloudy,200,2013-02-06 16:00:00
11:30 PM,80.6,75.2,84,29.89,4.3,SSW,9.2,-,N/A,,Mostly Cloudy,200,2013-02-06 16:30:00